sensor_id;sensor_type;location;lat;lon;timestamp;P1;durP1;ratioP1;P2;durP2;ratioP2
34200;SDS011;20469;55.638;37.670;2023-07-20T00:00:53;2.80;;;1.30;;
34200;SDS011;20469;55.638;37.670;2023-07-20T00:03:38;2.65;;;1.20;;
34200;SDS011;20469;55.638;37.670;2023-07-20T00:06:05;5.35;;;2.33;;
34200;SDS011;20469;55.638;37.670;2023-07-20T00:08:33;3.40;;;1.38;;
34200;SDS011;20469;55.638;37.670;2023-07-20T00:11:00;2.15;;;1.27;;
34200;SDS011;20469;55.638;37.670;2023-07-20T00:13:27;4.05;;;1.48;;
34200;SDS011;20469;55.638;37.670;2023-07-20T00:15:54;3.63;;;1.20;;
34200;SDS011;20469;55.638;37.670;2023-07-20T00:18:22;2.50;;;1.33;;
34200;SDS011;20469;55.638;37.670;2023-07-20T00:20:49;3.83;;;1.20;;
34200;SDS011;20469;55.638;37.670;2023-07-20T00:23:17;2.67;;;1.23;;
34200;SDS011;20469;55.638;37.670;2023-07-20T00:25:47;3.22;;;1.30;;
34200;SDS011;20469;55.638;37.670;2023-07-20T00:28:14;3.45;;;1.55;;
34200;SDS011;20469;55.638;37.670;2023-07-20T00:30:41;4.13;;;1.40;;
34200;SDS011;20469;55.638;37.670;2023-07-20T00:33:10;2.35;;;1.30;;
34200;SDS011;20469;55.638;37.670;2023-07-20T00:35:38;4.72;;;1.77;;
34200;SDS011;20469;55.638;37.670;2023-07-20T00:38:06;3.20;;;1.30;;
34200;SDS011;20469;55.638;37.670;2023-07-20T00:40:36;3.35;;;1.30;;
34200;SDS011;20469;55.638;37.670;2023-07-20T00:43:05;2.53;;;1.17;;
34200;SDS011;20469;55.638;37.670;2023-07-20T00:45:32;3.10;;;1.40;;
34200;SDS011;20469;55.638;37.670;2023-07-20T00:48:01;4.65;;;1.27;;
34200;SDS011;20469;55.638;37.670;2023-07-20T00:50:31;4.03;;;1.30;;
34200;SDS011;20469;55.638;37.670;2023-07-20T00:53:00;3.08;;;1.40;;
34200;SDS011;20469;55.638;37.670;2023-07-20T00:55:32;3.83;;;1.05;;
34200;SDS011;20469;55.638;37.670;2023-07-20T00:57:59;4.55;;;1.30;;
34200;SDS011;20469;55.638;37.670;2023-07-20T01:00:27;5.63;;;1.50;;
34200;SDS011;20469;55.638;37.670;2023-07-20T01:02:54;3.05;;;1.40;;
34200;SDS011;20469;55.638;37.670;2023-07-20T01:05:22;6.55;;;1.30;;
34200;SDS011;20469;55.638;37.670;2023-07-20T01:07:57;3.75;;;1.30;;
34200;SDS011;20469;55.638;37.670;2023-07-20T01:10:33;5.25;;;1.20;;
34200;SDS011;20469;55.638;37.670;2023-07-20T01:13:06;4.95;;;1.30;;
34200;SDS011;20469;55.638;37.670;2023-07-20T01:15:34;2.60;;;1.10;;
34200;SDS011;20469;55.638;37.670;2023-07-20T01:18:01;3.70;;;1.30;;
34200;SDS011;20469;55.638;37.670;2023-07-20T01:20:31;2.33;;;1.30;;
34200;SDS011;20469;55.638;37.670;2023-07-20T01:26:02;2.63;;;1.10;;
34200;SDS011;20469;55.638;37.670;2023-07-20T01:31:20;2.60;;;0.80;;
34200;SDS011;20469;55.638;37.670;2023-07-20T01:33:48;4.47;;;1.55;;
34200;SDS011;20469;55.638;37.670;2023-07-20T01:36:18;2.58;;;1.20;;
34200;SDS011;20469;55.638;37.670;2023-07-20T01:38:49;3.53;;;0.98;;
34200;SDS011;20469;55.638;37.670;2023-07-20T01:41:16;4.65;;;0.90;;
34200;SDS011;20469;55.638;37.670;2023-07-20T01:43:44;3.95;;;1.35;;
34200;SDS011;20469;55.638;37.670;2023-07-20T01:46:12;3.47;;;1.08;;
34200;SDS011;20469;55.638;37.670;2023-07-20T01:48:40;3.40;;;1.00;;
34200;SDS011;20469;55.638;37.670;2023-07-20T01:51:08;3.53;;;1.05;;
34200;SDS011;20469;55.638;37.670;2023-07-20T01:53:35;2.60;;;1.20;;
34200;SDS011;20469;55.638;37.670;2023-07-20T01:56:03;2.53;;;1.20;;
34200;SDS011;20469;55.638;37.670;2023-07-20T01:58:30;4.40;;;0.98;;
34200;SDS011;20469;55.638;37.670;2023-07-20T02:00:57;2.78;;;1.17;;
34200;SDS011;20469;55.638;37.670;2023-07-20T02:03:24;2.40;;;1.00;;
34200;SDS011;20469;55.638;37.670;2023-07-20T02:05:53;3.03;;;1.00;;
34200;SDS011;20469;55.638;37.670;2023-07-20T02:08:20;3.65;;;1.20;;
34200;SDS011;20469;55.638;37.670;2023-07-20T02:10:47;7.25;;;1.20;;
34200;SDS011;20469;55.638;37.670;2023-07-20T02:13:15;4.38;;;1.10;;
34200;SDS011;20469;55.638;37.670;2023-07-20T02:15:42;2.60;;;1.17;;
34200;SDS011;20469;55.638;37.670;2023-07-20T02:18:10;4.10;;;1.15;;
34200;SDS011;20469;55.638;37.670;2023-07-20T02:20:37;3.55;;;1.08;;
34200;SDS011;20469;55.638;37.670;2023-07-20T02:23:04;3.58;;;0.90;;
34200;SDS011;20469;55.638;37.670;2023-07-20T02:25:31;6.50;;;1.25;;
34200;SDS011;20469;55.638;37.670;2023-07-20T02:27:59;3.45;;;0.90;;
34200;SDS011;20469;55.638;37.670;2023-07-20T02:30:26;1.65;;;1.05;;
34200;SDS011;20469;55.638;37.670;2023-07-20T02:32:54;5.32;;;1.15;;
34200;SDS011;20469;55.638;37.670;2023-07-20T02:35:25;4.10;;;1.20;;
34200;SDS011;20469;55.638;37.670;2023-07-20T02:37:52;2.55;;;0.88;;
34200;SDS011;20469;55.638;37.670;2023-07-20T02:40:19;1.95;;;0.90;;
34200;SDS011;20469;55.638;37.670;2023-07-20T02:42:47;1.77;;;0.85;;
34200;SDS011;20469;55.638;37.670;2023-07-20T02:45:14;3.33;;;1.38;;
34200;SDS011;20469;55.638;37.670;2023-07-20T02:47:42;3.80;;;1.20;;
34200;SDS011;20469;55.638;37.670;2023-07-20T02:50:10;5.15;;;1.15;;
34200;SDS011;20469;55.638;37.670;2023-07-20T02:52:40;3.00;;;1.20;;
34200;SDS011;20469;55.638;37.670;2023-07-20T02:55:07;3.42;;;1.35;;
34200;SDS011;20469;55.638;37.670;2023-07-20T02:57:35;4.65;;;1.10;;
34200;SDS011;20469;55.638;37.670;2023-07-20T03:00:02;2.65;;;1.00;;
34200;SDS011;20469;55.638;37.670;2023-07-20T03:02:33;3.83;;;1.05;;
34200;SDS011;20469;55.638;37.670;2023-07-20T03:05:00;4.85;;;1.10;;
34200;SDS011;20469;55.638;37.670;2023-07-20T03:07:29;4.28;;;1.17;;
34200;SDS011;20469;55.638;37.670;2023-07-20T03:09:56;3.88;;;1.30;;
34200;SDS011;20469;55.638;37.670;2023-07-20T03:12:24;3.28;;;1.13;;
34200;SDS011;20469;55.638;37.670;2023-07-20T03:14:51;3.45;;;1.20;;
34200;SDS011;20469;55.638;37.670;2023-07-20T03:17:19;5.18;;;1.40;;
34200;SDS011;20469;55.638;37.670;2023-07-20T03:19:47;2.40;;;1.00;;
34200;SDS011;20469;55.638;37.670;2023-07-20T03:22:14;2.85;;;1.15;;
34200;SDS011;20469;55.638;37.670;2023-07-20T03:24:41;4.80;;;2.03;;
34200;SDS011;20469;55.638;37.670;2023-07-20T03:27:08;3.17;;;1.20;;
34200;SDS011;20469;55.638;37.670;2023-07-20T03:29:35;3.47;;;1.17;;
34200;SDS011;20469;55.638;37.670;2023-07-20T03:32:03;3.92;;;1.15;;
34200;SDS011;20469;55.638;37.670;2023-07-20T03:34:30;3.40;;;1.30;;
34200;SDS011;20469;55.638;37.670;2023-07-20T03:36:57;2.05;;;1.02;;
34200;SDS011;20469;55.638;37.670;2023-07-20T03:39:25;2.33;;;1.25;;
34200;SDS011;20469;55.638;37.670;2023-07-20T03:41:53;4.50;;;1.48;;
34200;SDS011;20469;55.638;37.670;2023-07-20T03:44:20;1.83;;;1.13;;
34200;SDS011;20469;55.638;37.670;2023-07-20T03:46:48;2.60;;;1.30;;
34200;SDS011;20469;55.638;37.670;2023-07-20T03:49:15;4.43;;;1.20;;
34200;SDS011;20469;55.638;37.670;2023-07-20T03:51:42;3.25;;;0.95;;
34200;SDS011;20469;55.638;37.670;2023-07-20T03:54:09;2.05;;;1.13;;
34200;SDS011;20469;55.638;37.670;2023-07-20T03:56:37;6.68;;;1.00;;
34200;SDS011;20469;55.638;37.670;2023-07-20T03:59:04;2.28;;;0.82;;
34200;SDS011;20469;55.638;37.670;2023-07-20T04:01:31;2.72;;;0.98;;
34200;SDS011;20469;55.638;37.670;2023-07-20T04:04:06;3.75;;;1.20;;
34200;SDS011;20469;55.638;37.670;2023-07-20T04:06:34;2.92;;;1.23;;
34200;SDS011;20469;55.638;37.670;2023-07-20T04:09:02;3.42;;;0.98;;
34200;SDS011;20469;55.638;37.670;2023-07-20T04:11:31;3.70;;;0.80;;
34200;SDS011;20469;55.638;37.670;2023-07-20T04:13:58;3.33;;;1.20;;
34200;SDS011;20469;55.638;37.670;2023-07-20T04:16:25;3.85;;;1.02;;
34200;SDS011;20469;55.638;37.670;2023-07-20T04:18:56;1.98;;;0.85;;
34200;SDS011;20469;55.638;37.670;2023-07-20T04:21:25;2.85;;;0.90;;
34200;SDS011;20469;55.638;37.670;2023-07-20T04:23:53;2.58;;;1.13;;
34200;SDS011;20469;55.638;37.670;2023-07-20T04:26:21;2.58;;;1.17;;
34200;SDS011;20469;55.638;37.670;2023-07-20T04:28:48;4.65;;;1.25;;
34200;SDS011;20469;55.638;37.670;2023-07-20T04:31:17;3.05;;;1.27;;
34200;SDS011;20469;55.638;37.670;2023-07-20T04:33:45;2.45;;;1.35;;
34200;SDS011;20469;55.638;37.670;2023-07-20T04:36:12;4.68;;;1.10;;
34200;SDS011;20469;55.638;37.670;2023-07-20T04:38:41;3.53;;;0.73;;
34200;SDS011;20469;55.638;37.670;2023-07-20T04:41:08;2.60;;;1.20;;
34200;SDS011;20469;55.638;37.670;2023-07-20T04:43:35;2.33;;;1.08;;
34200;SDS011;20469;55.638;37.670;2023-07-20T04:46:03;2.72;;;1.00;;
34200;SDS011;20469;55.638;37.670;2023-07-20T04:48:30;3.25;;;1.02;;
34200;SDS011;20469;55.638;37.670;2023-07-20T04:50:57;1.75;;;0.80;;
34200;SDS011;20469;55.638;37.670;2023-07-20T04:53:24;3.15;;;0.88;;
34200;SDS011;20469;55.638;37.670;2023-07-20T04:55:51;3.83;;;1.20;;
34200;SDS011;20469;55.638;37.670;2023-07-20T04:58:21;3.30;;;1.10;;
34200;SDS011;20469;55.638;37.670;2023-07-20T05:00:50;3.03;;;1.30;;
34200;SDS011;20469;55.638;37.670;2023-07-20T05:03:18;3.22;;;1.05;;
34200;SDS011;20469;55.638;37.670;2023-07-20T05:05:46;4.45;;;0.85;;
34200;SDS011;20469;55.638;37.670;2023-07-20T05:08:16;2.55;;;0.90;;
34200;SDS011;20469;55.638;37.670;2023-07-20T05:10:43;4.75;;;1.05;;
34200;SDS011;20469;55.638;37.670;2023-07-20T05:13:10;8.13;;;1.80;;
34200;SDS011;20469;55.638;37.670;2023-07-20T05:15:38;5.30;;;1.27;;
34200;SDS011;20469;55.638;37.670;2023-07-20T05:18:05;4.03;;;1.35;;
34200;SDS011;20469;55.638;37.670;2023-07-20T05:20:33;2.63;;;1.10;;
34200;SDS011;20469;55.638;37.670;2023-07-20T05:23:01;5.15;;;1.17;;
34200;SDS011;20469;55.638;37.670;2023-07-20T05:25:28;5.20;;;1.05;;
34200;SDS011;20469;55.638;37.670;2023-07-20T05:27:57;3.70;;;0.82;;
34200;SDS011;20469;55.638;37.670;2023-07-20T05:30:25;2.95;;;1.33;;
34200;SDS011;20469;55.638;37.670;2023-07-20T05:32:52;2.05;;;0.80;;
34200;SDS011;20469;55.638;37.670;2023-07-20T05:35:21;2.60;;;1.05;;
34200;SDS011;20469;55.638;37.670;2023-07-20T05:37:49;1.88;;;0.90;;
34200;SDS011;20469;55.638;37.670;2023-07-20T05:40:16;7.32;;;1.42;;
34200;SDS011;20469;55.638;37.670;2023-07-20T05:42:47;3.13;;;1.00;;
34200;SDS011;20469;55.638;37.670;2023-07-20T05:45:18;3.33;;;1.00;;
34200;SDS011;20469;55.638;37.670;2023-07-20T05:47:46;3.80;;;0.98;;
34200;SDS011;20469;55.638;37.670;2023-07-20T05:50:14;3.17;;;1.10;;
34200;SDS011;20469;55.638;37.670;2023-07-20T05:52:41;3.40;;;1.00;;
34200;SDS011;20469;55.638;37.670;2023-07-20T05:55:08;5.70;;;1.23;;
34200;SDS011;20469;55.638;37.670;2023-07-20T05:57:36;2.58;;;1.05;;
34200;SDS011;20469;55.638;37.670;2023-07-20T06:00:09;4.03;;;1.02;;
34200;SDS011;20469;55.638;37.670;2023-07-20T06:02:40;2.55;;;1.10;;
34200;SDS011;20469;55.638;37.670;2023-07-20T06:05:07;2.78;;;1.10;;
34200;SDS011;20469;55.638;37.670;2023-07-20T06:07:38;4.70;;;1.00;;
34200;SDS011;20469;55.638;37.670;2023-07-20T06:10:06;5.07;;;1.10;;
34200;SDS011;20469;55.638;37.670;2023-07-20T06:12:33;4.82;;;1.25;;
34200;SDS011;20469;55.638;37.670;2023-07-20T06:15:04;2.67;;;1.15;;
34200;SDS011;20469;55.638;37.670;2023-07-20T06:17:33;2.78;;;0.90;;
34200;SDS011;20469;55.638;37.670;2023-07-20T06:20:02;9.25;;;1.20;;
34200;SDS011;20469;55.638;37.670;2023-07-20T06:22:30;5.53;;;1.08;;
34200;SDS011;20469;55.638;37.670;2023-07-20T06:24:57;4.25;;;1.10;;
34200;SDS011;20469;55.638;37.670;2023-07-20T06:27:25;1.30;;;0.80;;
34200;SDS011;20469;55.638;37.670;2023-07-20T06:29:52;4.55;;;1.02;;
34200;SDS011;20469;55.638;37.670;2023-07-20T06:32:19;3.67;;;1.48;;
34200;SDS011;20469;55.638;37.670;2023-07-20T06:34:46;2.97;;;1.85;;
34200;SDS011;20469;55.638;37.670;2023-07-20T06:37:14;4.28;;;1.20;;
34200;SDS011;20469;55.638;37.670;2023-07-20T06:39:41;2.40;;;1.00;;
34200;SDS011;20469;55.638;37.670;2023-07-20T06:42:11;2.90;;;1.10;;
34200;SDS011;20469;55.638;37.670;2023-07-20T06:44:39;3.17;;;1.20;;
34200;SDS011;20469;55.638;37.670;2023-07-20T06:47:06;3.45;;;1.25;;
34200;SDS011;20469;55.638;37.670;2023-07-20T06:49:34;3.05;;;0.95;;
34200;SDS011;20469;55.638;37.670;2023-07-20T06:52:01;4.00;;;1.15;;
34200;SDS011;20469;55.638;37.670;2023-07-20T06:54:28;6.10;;;1.27;;
34200;SDS011;20469;55.638;37.670;2023-07-20T06:57:01;2.78;;;0.98;;
34200;SDS011;20469;55.638;37.670;2023-07-20T06:59:43;1.48;;;1.10;;
34200;SDS011;20469;55.638;37.670;2023-07-20T07:02:11;4.35;;;1.30;;
34200;SDS011;20469;55.638;37.670;2023-07-20T07:04:41;6.70;;;1.10;;
34200;SDS011;20469;55.638;37.670;2023-07-20T07:07:09;3.13;;;1.02;;
34200;SDS011;20469;55.638;37.670;2023-07-20T07:09:36;3.10;;;0.88;;
34200;SDS011;20469;55.638;37.670;2023-07-20T07:12:03;2.55;;;0.98;;
34200;SDS011;20469;55.638;37.670;2023-07-20T07:14:31;3.95;;;1.00;;
34200;SDS011;20469;55.638;37.670;2023-07-20T07:16:59;1.73;;;0.80;;
34200;SDS011;20469;55.638;37.670;2023-07-20T07:19:30;2.88;;;0.90;;
34200;SDS011;20469;55.638;37.670;2023-07-20T07:21:58;2.20;;;1.10;;
34200;SDS011;20469;55.638;37.670;2023-07-20T07:24:26;3.42;;;1.15;;
34200;SDS011;20469;55.638;37.670;2023-07-20T07:26:55;3.60;;;1.00;;
34200;SDS011;20469;55.638;37.670;2023-07-20T07:29:22;4.13;;;1.15;;
34200;SDS011;20469;55.638;37.670;2023-07-20T07:31:50;3.70;;;1.30;;
34200;SDS011;20469;55.638;37.670;2023-07-20T07:34:17;6.90;;;1.40;;
34200;SDS011;20469;55.638;37.670;2023-07-20T07:36:44;5.10;;;1.38;;
34200;SDS011;20469;55.638;37.670;2023-07-20T07:39:12;2.97;;;1.27;;
34200;SDS011;20469;55.638;37.670;2023-07-20T07:42:00;2.95;;;1.20;;
34200;SDS011;20469;55.638;37.670;2023-07-20T07:44:27;4.43;;;1.35;;
34200;SDS011;20469;55.638;37.670;2023-07-20T07:46:54;10.30;;;2.28;;
34200;SDS011;20469;55.638;37.670;2023-07-20T07:49:22;4.50;;;1.20;;
34200;SDS011;20469;55.638;37.670;2023-07-20T07:51:49;4.03;;;1.05;;
34200;SDS011;20469;55.638;37.670;2023-07-20T07:54:17;2.13;;;0.90;;
34200;SDS011;20469;55.638;37.670;2023-07-20T07:56:44;4.05;;;1.00;;
34200;SDS011;20469;55.638;37.670;2023-07-20T07:59:12;7.93;;;1.20;;
34200;SDS011;20469;55.638;37.670;2023-07-20T08:01:39;4.82;;;1.15;;
34200;SDS011;20469;55.638;37.670;2023-07-20T08:04:06;3.65;;;1.20;;
34200;SDS011;20469;55.638;37.670;2023-07-20T08:06:33;3.03;;;1.10;;
34200;SDS011;20469;55.638;37.670;2023-07-20T08:09:01;3.47;;;1.10;;
34200;SDS011;20469;55.638;37.670;2023-07-20T08:11:28;2.85;;;1.10;;
34200;SDS011;20469;55.638;37.670;2023-07-20T08:13:57;2.10;;;1.08;;
34200;SDS011;20469;55.638;37.670;2023-07-20T08:16:26;1.70;;;1.00;;
34200;SDS011;20469;55.638;37.670;2023-07-20T08:18:54;4.35;;;1.25;;
34200;SDS011;20469;55.638;37.670;2023-07-20T08:21:22;6.32;;;1.80;;
34200;SDS011;20469;55.638;37.670;2023-07-20T08:23:49;22.83;;;2.38;;
34200;SDS011;20469;55.638;37.670;2023-07-20T08:26:17;11.18;;;1.50;;
34200;SDS011;20469;55.638;37.670;2023-07-20T08:28:44;6.97;;;1.73;;
34200;SDS011;20469;55.638;37.670;2023-07-20T08:31:12;4.43;;;1.17;;
34200;SDS011;20469;55.638;37.670;2023-07-20T08:33:39;4.50;;;1.05;;
34200;SDS011;20469;55.638;37.670;2023-07-20T08:36:07;5.07;;;1.23;;
34200;SDS011;20469;55.638;37.670;2023-07-20T08:38:45;3.60;;;1.10;;
34200;SDS011;20469;55.638;37.670;2023-07-20T08:41:12;4.97;;;1.17;;
34200;SDS011;20469;55.638;37.670;2023-07-20T08:43:40;3.08;;;1.30;;
34200;SDS011;20469;55.638;37.670;2023-07-20T08:46:10;2.67;;;1.20;;
34200;SDS011;20469;55.638;37.670;2023-07-20T08:48:40;6.50;;;1.73;;
34200;SDS011;20469;55.638;37.670;2023-07-20T08:51:10;5.05;;;1.40;;
34200;SDS011;20469;55.638;37.670;2023-07-20T08:53:37;4.55;;;1.25;;
34200;SDS011;20469;55.638;37.670;2023-07-20T08:56:05;4.20;;;1.35;;
34200;SDS011;20469;55.638;37.670;2023-07-20T08:58:34;3.45;;;1.48;;
34200;SDS011;20469;55.638;37.670;2023-07-20T09:01:02;5.45;;;1.50;;
34200;SDS011;20469;55.638;37.670;2023-07-20T09:03:30;6.10;;;1.58;;
34200;SDS011;20469;55.638;37.670;2023-07-20T09:05:58;3.03;;;1.40;;
34200;SDS011;20469;55.638;37.670;2023-07-20T09:08:26;3.83;;;1.23;;
34200;SDS011;20469;55.638;37.670;2023-07-20T09:10:53;6.32;;;1.48;;
34200;SDS011;20469;55.638;37.670;2023-07-20T09:13:21;2.28;;;1.25;;
34200;SDS011;20469;55.638;37.670;2023-07-20T09:15:52;3.50;;;1.13;;
34200;SDS011;20469;55.638;37.670;2023-07-20T09:18:24;5.43;;;1.30;;
34200;SDS011;20469;55.638;37.670;2023-07-20T09:20:51;6.53;;;1.88;;
34200;SDS011;20469;55.638;37.670;2023-07-20T09:23:19;4.95;;;1.25;;
34200;SDS011;20469;55.638;37.670;2023-07-20T09:25:46;4.63;;;1.20;;
34200;SDS011;20469;55.638;37.670;2023-07-20T09:28:17;3.63;;;1.63;;
34200;SDS011;20469;55.638;37.670;2023-07-20T09:30:44;3.67;;;1.30;;
34200;SDS011;20469;55.638;37.670;2023-07-20T09:33:21;6.93;;;1.90;;
34200;SDS011;20469;55.638;37.670;2023-07-20T09:35:51;7.22;;;1.70;;
34200;SDS011;20469;55.638;37.670;2023-07-20T09:38:21;4.75;;;1.42;;
34200;SDS011;20469;55.638;37.670;2023-07-20T09:40:50;2.65;;;1.38;;
34200;SDS011;20469;55.638;37.670;2023-07-20T09:43:20;7.00;;;1.83;;
34200;SDS011;20469;55.638;37.670;2023-07-20T09:45:50;4.22;;;1.48;;
34200;SDS011;20469;55.638;37.670;2023-07-20T09:48:25;3.10;;;1.50;;
34200;SDS011;20469;55.638;37.670;2023-07-20T09:50:58;3.03;;;1.50;;
34200;SDS011;20469;55.638;37.670;2023-07-20T09:53:26;3.75;;;1.63;;
34200;SDS011;20469;55.638;37.670;2023-07-20T09:55:54;3.83;;;1.30;;
34200;SDS011;20469;55.638;37.670;2023-07-20T09:58:22;10.00;;;3.20;;
34200;SDS011;20469;55.638;37.670;2023-07-20T10:00:51;7.55;;;2.35;;
34200;SDS011;20469;55.638;37.670;2023-07-20T10:03:21;6.03;;;2.15;;
34200;SDS011;20469;55.638;37.670;2023-07-20T10:05:58;16.98;;;6.53;;
34200;SDS011;20469;55.638;37.670;2023-07-20T10:08:30;22.38;;;7.80;;
34200;SDS011;20469;55.638;37.670;2023-07-20T10:11:04;17.42;;;6.80;;
34200;SDS011;20469;55.638;37.670;2023-07-20T10:13:36;14.88;;;5.28;;
34200;SDS011;20469;55.638;37.670;2023-07-20T10:16:28;7.97;;;2.80;;
34200;SDS011;20469;55.638;37.670;2023-07-20T10:18:59;10.07;;;3.08;;
34200;SDS011;20469;55.638;37.670;2023-07-20T10:21:30;9.30;;;3.95;;
34200;SDS011;20469;55.638;37.670;2023-07-20T10:24:02;4.90;;;1.88;;
34200;SDS011;20469;55.638;37.670;2023-07-20T10:26:30;25.13;;;8.90;;
34200;SDS011;20469;55.638;37.670;2023-07-20T10:28:58;6.43;;;2.45;;
34200;SDS011;20469;55.638;37.670;2023-07-20T10:31:26;4.65;;;1.63;;
34200;SDS011;20469;55.638;37.670;2023-07-20T10:33:58;4.75;;;2.17;;
34200;SDS011;20469;55.638;37.670;2023-07-20T10:36:26;6.20;;;2.30;;
34200;SDS011;20469;55.638;37.670;2023-07-20T10:38:57;7.90;;;3.10;;
34200;SDS011;20469;55.638;37.670;2023-07-20T10:41:28;5.18;;;1.85;;
34200;SDS011;20469;55.638;37.670;2023-07-20T10:44:19;10.27;;;2.60;;
34200;SDS011;20469;55.638;37.670;2023-07-20T10:46:46;6.50;;;2.60;;
34200;SDS011;20469;55.638;37.670;2023-07-20T10:49:14;6.93;;;2.90;;
34200;SDS011;20469;55.638;37.670;2023-07-20T10:51:45;8.65;;;3.55;;
34200;SDS011;20469;55.638;37.670;2023-07-20T10:56:48;4.20;;;1.48;;
34200;SDS011;20469;55.638;37.670;2023-07-20T10:59:19;4.70;;;1.50;;
34200;SDS011;20469;55.638;37.670;2023-07-20T11:02:09;6.70;;;1.83;;
34200;SDS011;20469;55.638;37.670;2023-07-20T11:04:40;3.92;;;1.83;;
34200;SDS011;20469;55.638;37.670;2023-07-20T11:07:07;5.68;;;2.00;;
34200;SDS011;20469;55.638;37.670;2023-07-20T11:09:38;3.00;;;1.63;;
34200;SDS011;20469;55.638;37.670;2023-07-20T11:14:43;6.53;;;1.75;;
34200;SDS011;20469;55.638;37.670;2023-07-20T11:17:20;3.53;;;1.80;;
34200;SDS011;20469;55.638;37.670;2023-07-20T11:19:59;6.47;;;2.13;;
34200;SDS011;20469;55.638;37.670;2023-07-20T11:22:31;4.73;;;1.93;;
34200;SDS011;20469;55.638;37.670;2023-07-20T11:24:58;6.93;;;2.30;;
34200;SDS011;20469;55.638;37.670;2023-07-20T11:27:26;6.80;;;2.00;;
34200;SDS011;20469;55.638;37.670;2023-07-20T11:29:55;4.28;;;1.75;;
34200;SDS011;20469;55.638;37.670;2023-07-20T11:32:23;7.68;;;2.08;;
34200;SDS011;20469;55.638;37.670;2023-07-20T11:34:51;9.35;;;1.80;;
34200;SDS011;20469;55.638;37.670;2023-07-20T11:37:18;4.50;;;1.52;;
34200;SDS011;20469;55.638;37.670;2023-07-20T11:39:46;4.60;;;1.70;;
34200;SDS011;20469;55.638;37.670;2023-07-20T11:42:14;4.43;;;1.52;;
34200;SDS011;20469;55.638;37.670;2023-07-20T11:44:44;8.57;;;2.10;;
34200;SDS011;20469;55.638;37.670;2023-07-20T11:47:12;4.50;;;1.85;;
34200;SDS011;20469;55.638;37.670;2023-07-20T11:49:42;5.38;;;1.83;;
34200;SDS011;20469;55.638;37.670;2023-07-20T11:52:11;3.10;;;1.80;;
34200;SDS011;20469;55.638;37.670;2023-07-20T11:54:42;3.05;;;1.50;;
34200;SDS011;20469;55.638;37.670;2023-07-20T11:57:21;8.13;;;2.10;;
34200;SDS011;20469;55.638;37.670;2023-07-20T11:59:55;3.45;;;1.50;;
34200;SDS011;20469;55.638;37.670;2023-07-20T12:02:26;4.43;;;1.88;;
34200;SDS011;20469;55.638;37.670;2023-07-20T12:04:54;9.27;;;2.25;;
34200;SDS011;20469;55.638;37.670;2023-07-20T12:07:25;6.13;;;1.88;;
34200;SDS011;20469;55.638;37.670;2023-07-20T12:10:04;5.70;;;1.70;;
34200;SDS011;20469;55.638;37.670;2023-07-20T12:12:40;5.57;;;2.10;;
34200;SDS011;20469;55.638;37.670;2023-07-20T12:15:42;6.18;;;2.30;;
34200;SDS011;20469;55.638;37.670;2023-07-20T12:18:03;7.03;;;2.28;;
34200;SDS011;20469;55.638;37.670;2023-07-20T12:20:35;4.95;;;2.22;;
34200;SDS011;20469;55.638;37.670;2023-07-20T12:23:09;4.40;;;1.75;;
34200;SDS011;20469;55.638;37.670;2023-07-20T12:25:38;2.90;;;1.80;;
34200;SDS011;20469;55.638;37.670;2023-07-20T12:28:10;7.50;;;2.13;;
34200;SDS011;20469;55.638;37.670;2023-07-20T12:33:07;5.47;;;2.08;;
34200;SDS011;20469;55.638;37.670;2023-07-20T12:35:34;5.93;;;2.03;;
34200;SDS011;20469;55.638;37.670;2023-07-20T12:38:02;3.47;;;1.77;;
34200;SDS011;20469;55.638;37.670;2023-07-20T12:40:29;4.30;;;2.00;;
34200;SDS011;20469;55.638;37.670;2023-07-20T12:42:56;6.35;;;2.22;;
34200;SDS011;20469;55.638;37.670;2023-07-20T12:45:24;6.10;;;1.60;;
34200;SDS011;20469;55.638;37.670;2023-07-20T12:47:51;5.30;;;1.67;;
34200;SDS011;20469;55.638;37.670;2023-07-20T12:50:19;2.95;;;1.35;;
34200;SDS011;20469;55.638;37.670;2023-07-20T12:52:46;3.85;;;1.58;;
34200;SDS011;20469;55.638;37.670;2023-07-20T12:55:13;2.05;;;1.52;;
34200;SDS011;20469;55.638;37.670;2023-07-20T12:57:40;3.60;;;1.65;;
34200;SDS011;20469;55.638;37.670;2023-07-20T13:00:09;2.38;;;1.17;;
34200;SDS011;20469;55.638;37.670;2023-07-20T13:02:38;3.03;;;1.50;;
34200;SDS011;20469;55.638;37.670;2023-07-20T13:05:06;3.88;;;1.48;;
34200;SDS011;20469;55.638;37.670;2023-07-20T13:07:34;3.28;;;1.70;;
34200;SDS011;20469;55.638;37.670;2023-07-20T13:10:06;5.68;;;1.50;;
34200;SDS011;20469;55.638;37.670;2023-07-20T13:12:34;4.40;;;1.60;;
34200;SDS011;20469;55.638;37.670;2023-07-20T13:15:03;4.15;;;1.52;;
34200;SDS011;20469;55.638;37.670;2023-07-20T13:17:37;5.55;;;1.90;;
34200;SDS011;20469;55.638;37.670;2023-07-20T13:20:06;4.10;;;1.70;;
34200;SDS011;20469;55.638;37.670;2023-07-20T13:22:40;3.25;;;1.60;;
34200;SDS011;20469;55.638;37.670;2023-07-20T13:25:07;4.47;;;2.10;;
34200;SDS011;20469;55.638;37.670;2023-07-20T13:27:36;3.15;;;1.50;;
34200;SDS011;20469;55.638;37.670;2023-07-20T13:30:04;2.75;;;1.40;;
34200;SDS011;20469;55.638;37.670;2023-07-20T13:32:37;4.28;;;1.77;;
34200;SDS011;20469;55.638;37.670;2023-07-20T13:35:11;4.72;;;1.63;;
34200;SDS011;20469;55.638;37.670;2023-07-20T13:37:39;3.45;;;1.73;;
34200;SDS011;20469;55.638;37.670;2023-07-20T13:40:07;5.22;;;1.58;;
34200;SDS011;20469;55.638;37.670;2023-07-20T13:42:39;3.70;;;1.30;;
34200;SDS011;20469;55.638;37.670;2023-07-20T13:45:09;3.50;;;1.60;;
34200;SDS011;20469;55.638;37.670;2023-07-20T13:47:36;3.08;;;1.58;;
34200;SDS011;20469;55.638;37.670;2023-07-20T13:50:04;2.85;;;1.50;;
34200;SDS011;20469;55.638;37.670;2023-07-20T13:52:32;4.15;;;1.50;;
34200;SDS011;20469;55.638;37.670;2023-07-20T13:55:03;4.45;;;1.83;;
34200;SDS011;20469;55.638;37.670;2023-07-20T13:57:34;4.95;;;1.80;;
34200;SDS011;20469;55.638;37.670;2023-07-20T14:00:05;5.30;;;1.70;;
34200;SDS011;20469;55.638;37.670;2023-07-20T14:02:35;3.65;;;1.58;;
34200;SDS011;20469;55.638;37.670;2023-07-20T14:05:06;4.18;;;1.60;;
34200;SDS011;20469;55.638;37.670;2023-07-20T14:07:37;4.95;;;2.10;;
34200;SDS011;20469;55.638;37.670;2023-07-20T14:10:05;7.38;;;2.10;;
34200;SDS011;20469;55.638;37.670;2023-07-20T14:12:35;4.25;;;1.50;;
34200;SDS011;20469;55.638;37.670;2023-07-20T14:15:02;7.32;;;1.50;;
34200;SDS011;20469;55.638;37.670;2023-07-20T14:17:31;2.85;;;1.60;;
34200;SDS011;20469;55.638;37.670;2023-07-20T14:19:59;3.75;;;1.40;;
34200;SDS011;20469;55.638;37.670;2023-07-20T14:22:26;3.22;;;1.30;;
34200;SDS011;20469;55.638;37.670;2023-07-20T14:24:53;4.30;;;1.50;;
34200;SDS011;20469;55.638;37.670;2023-07-20T14:27:21;2.72;;;1.38;;
34200;SDS011;20469;55.638;37.670;2023-07-20T14:29:48;3.75;;;1.50;;
34200;SDS011;20469;55.638;37.670;2023-07-20T14:32:15;3.55;;;1.48;;
34200;SDS011;20469;55.638;37.670;2023-07-20T14:34:43;5.45;;;1.50;;
34200;SDS011;20469;55.638;37.670;2023-07-20T14:37:12;4.22;;;1.58;;
34200;SDS011;20469;55.638;37.670;2023-07-20T14:39:40;3.92;;;1.58;;
34200;SDS011;20469;55.638;37.670;2023-07-20T14:42:08;2.83;;;1.55;;
34200;SDS011;20469;55.638;37.670;2023-07-20T14:44:35;3.33;;;1.40;;
34200;SDS011;20469;55.638;37.670;2023-07-20T14:47:03;3.28;;;1.70;;
34200;SDS011;20469;55.638;37.670;2023-07-20T14:49:40;5.03;;;1.60;;
34200;SDS011;20469;55.638;37.670;2023-07-20T14:52:07;4.28;;;1.70;;
34200;SDS011;20469;55.638;37.670;2023-07-20T14:54:38;3.50;;;1.73;;
34200;SDS011;20469;55.638;37.670;2023-07-20T14:57:05;4.47;;;1.70;;